Time;durP1;ratioP1;P1;durP2;ratioP2;P2;SDS_P1;SDS_P2;PMS_P1;PMS_P2;Temp;Humidity;BMP_temperature;BMP_pressure;BME280_temperature;BME280_humidity;BME280_pressure;Samples;Min_cycle;Max_cycle;Signal;HPM_P1;HPM_P2
2022/11/30 00:00:33;;;;;;;34.17;19.95;;;6.20;99.90;;;;;;5107540;28;20031;-82
2022/11/30 00:02:58;;;;;;;30.23;17.75;;;6.10;99.90;;;;;;5112580;28;20561;-82
2022/11/30 00:05:24;;;;;;;30.52;18.77;;;6.00;99.90;;;;;;5115465;28;20254;-82
2022/11/30 00:07:50;;;;;;;33.72;19.67;;;5.90;99.90;;;;;;5109481;28;20070;-82
2022/11/30 00:10:16;;;;;;;33.08;20.05;;;5.90;99.90;;;;;;5101285;28;20046;-79
2022/11/30 00:12:42;;;;;;;33.95;20.20;;;5.80;99.90;;;;;;5112160;28;20112;-81
2022/11/30 00:15:13;;;;;;;32.17;19.73;;;5.70;99.90;;;;;;5106665;28;20035;-80
2022/11/30 00:17:45;;;;;;;30.02;18.10;;;5.60;99.90;;;;;;5104073;28;20055;-82
2022/11/30 00:20:12;;;;;;;25.73;16.88;;;5.50;99.90;;;;;;5110921;28;20430;-81
2022/11/30 00:22:37;;;;;;;31.52;19.08;;;5.50;99.90;;;;;;5089376;28;20031;-82
2022/11/30 00:25:03;;;;;;;31.77;19.42;;;5.40;99.90;;;;;;5108912;28;20077;-82
2022/11/30 00:27:30;;;;;;;31.75;18.98;;;5.40;99.90;;;;;;5104954;28;20035;-81
2022/11/30 00:29:56;;;;;;;29.85;18.45;;;5.40;99.90;;;;;;5094411;28;20045;-83
2022/11/30 00:32:22;;;;;;;29.25;17.98;;;5.40;99.90;;;;;;5103337;28;20421;-83
2022/11/30 00:34:48;;;;;;;24.27;15.05;;;5.30;99.90;;;;;;5113225;28;20039;-82
2022/11/30 00:37:13;;;;;;;23.13;13.25;;;5.30;99.90;;;;;;5092492;28;20044;-82
2022/11/30 00:39:39;;;;;;;30.27;18.35;;;5.20;99.90;;;;;;5112157;28;20035;-82
2022/11/30 00:42:05;;;;;;;37.45;16.02;;;5.10;99.90;;;;;;5111291;28;20039;-82
2022/11/30 00:44:30;;;;;;;28.95;16.67;;;5.10;99.90;;;;;;5104291;28;20027;-82
2022/11/30 00:46:55;;;;;;;31.58;18.98;;;5.00;99.90;;;;;;5083662;28;20046;-81
2022/11/30 00:49:21;;;;;;;29.23;18.20;;;4.80;99.90;;;;;;5106062;28;20042;-82
2022/11/30 00:51:47;;;;;;;33.22;19.33;;;4.90;99.90;;;;;;5106791;28;20043;-82
2022/11/30 00:54:12;;;;;;;34.42;19.02;;;4.80;99.90;;;;;;5094982;28;20035;-82
2022/11/30 00:56:37;;;;;;;36.28;21.10;;;4.80;99.90;;;;;;5111112;28;20112;-82
2022/11/30 00:59:03;;;;;;;34.53;19.30;;;4.90;99.90;;;;;;5104403;28;20404;-82
2022/11/30 01:01:30;;;;;;;33.38;19.05;;;4.80;99.90;;;;;;5105702;28;20031;-82
2022/11/30 01:03:55;;;;;;;32.97;19.25;;;4.90;99.90;;;;;;5111999;27;20078;-82
2022/11/30 01:06:21;;;;;;;30.58;18.23;;;5.00;99.90;;;;;;5091196;27;20066;-82
2022/11/30 01:08:47;;;;;;;32.17;18.08;;;5.00;99.90;;;;;;5109150;27;20027;-82
2022/11/30 01:11:23;;;;;;;35.90;20.20;;;5.00;99.90;;;;;;5114731;27;20039;-82
2022/11/30 01:13:49;;;;;;;35.42;18.67;;;5.10;99.90;;;;;;5095081;28;20115;-81
2022/11/30 01:16:19;;;;;;;36.17;18.38;;;5.10;99.90;;;;;;5110378;27;20040;-81
2022/11/30 01:18:45;;;;;;;31.83;18.80;;;5.20;99.90;;;;;;5099683;28;20031;-81
2022/11/30 01:21:13;;;;;;;32.88;18.50;;;5.10;99.90;;;;;;5114782;27;20451;-81
2022/11/30 01:23:39;;;;;;;31.50;18.13;;;5.10;99.90;;;;;;5115185;27;20023;-82
2022/11/30 01:26:06;;;;;;;34.38;18.00;;;5.20;99.90;;;;;;5114590;27;20031;-79
2022/11/30 01:28:32;;;;;;;32.63;18.10;;;5.20;99.90;;;;;;5112172;27;20031;-82
2022/11/30 01:31:00;;;;;;;29.23;16.90;;;5.30;99.90;;;;;;5118268;27;20438;-81
2022/11/30 01:33:25;;;;;;;27.95;17.33;;;5.20;99.90;;;;;;5090399;27;20031;-80
2022/11/30 01:36:12;;;;;;;31.92;18.05;;;5.30;99.90;;;;;;5099731;27;20063;-80
2022/11/30 01:38:40;;;;;;;28.67;17.27;;;5.30;99.90;;;;;;5095348;27;20046;-81
2022/11/30 01:41:07;;;;;;;33.58;19.40;;;5.30;99.90;;;;;;5115046;27;20063;-81
2022/11/30 01:43:38;;;;;;;30.60;17.48;;;5.30;99.90;;;;;;5113211;28;20035;-81
2022/11/30 01:46:16;;;;;;;32.85;18.48;;;5.30;99.90;;;;;;5083532;28;20035;-80
2022/11/30 01:48:42;;;;;;;33.13;18.95;;;5.40;99.90;;;;;;5093468;28;20409;-82
2022/11/30 01:51:07;;;;;;;30.83;19.23;;;5.40;99.90;;;;;;5094199;27;20044;-82
2022/11/30 01:53:33;;;;;;;30.10;18.58;;;5.40;99.90;;;;;;5111939;27;20041;-82
2022/11/30 01:55:59;;;;;;;31.60;18.48;;;5.40;99.90;;;;;;5111743;28;20039;-81
2022/11/30 01:58:28;;;;;;;33.65;20.15;;;5.50;99.90;;;;;;5110003;27;20130;-82
2022/11/30 02:00:54;;;;;;;34.08;21.13;;;5.50;99.90;;;;;;5107102;28;20036;-81
2022/11/30 02:03:35;;;;;;;35.97;21.80;;;5.50;99.90;;;;;;5104604;28;20026;-82
2022/11/30 02:06:00;;;;;;;34.05;20.13;;;5.50;99.90;;;;;;5106026;28;20405;-80
2022/11/30 02:08:27;;;;;;;35.50;20.60;;;5.60;99.90;;;;;;5094919;27;20027;-81
2022/11/30 02:10:57;;;;;;;37.95;21.42;;;5.60;99.90;;;;;;5111002;27;20031;-81
2022/11/30 02:13:48;;;;;;;36.90;21.27;;;5.60;99.90;;;;;;5113907;27;20039;-82
2022/11/30 02:16:31;;;;;;;35.33;20.48;;;5.60;99.90;;;;;;5097369;27;20061;-82
2022/11/30 02:19:23;;;;;;;37.60;21.20;;;5.60;99.90;;;;;;5111608;28;20035;-82
2022/11/30 02:22:01;;;;;;;35.05;20.48;;;5.70;99.90;;;;;;5091437;27;20065;-81
2022/11/30 02:24:50;;;;;;;35.63;20.80;;;5.70;99.90;;;;;;5112663;27;20427;-81
2022/11/30 02:27:32;;;;;;;35.47;20.50;;;5.70;99.90;;;;;;5106688;27;20051;-82
2022/11/30 02:30:08;;;;;;;34.22;20.40;;;5.70;99.90;;;;;;5114400;28;20438;-82
2022/11/30 02:32:53;;;;;;;38.28;21.00;;;5.70;99.90;;;;;;5100508;28;20047;-82
2022/11/30 02:35:22;;;;;;;38.35;21.75;;;5.70;99.90;;;;;;5112383;27;20113;-81
2022/11/30 02:37:50;;;;;;;35.38;21.30;;;5.70;99.90;;;;;;5105098;28;20701;-82
2022/11/30 02:40:18;;;;;;;41.17;22.75;;;5.80;99.90;;;;;;5109465;27;20107;-82
2022/11/30 02:42:43;;;;;;;39.13;22.73;;;5.70;99.90;;;;;;5106252;28;20533;-81
2022/11/30 02:45:10;;;;;;;41.55;23.20;;;5.80;99.90;;;;;;5100350;27;20071;-82
2022/11/30 02:47:58;;;;;;;42.30;23.20;;;5.80;99.90;;;;;;5106489;27;20054;-82
2022/11/30 02:50:33;;;;;;;40.65;22.60;;;5.80;99.90;;;;;;5082227;27;20047;-81
2022/11/30 02:52:59;;;;;;;39.58;21.88;;;5.80;99.90;;;;;;5112548;27;20617;-82
2022/11/30 02:55:28;;;;;;;40.05;22.45;;;5.90;99.90;;;;;;5115029;27;20090;-83
2022/11/30 02:57:53;;;;;;;40.22;23.08;;;5.90;99.90;;;;;;5095536;27;20044;-83
2022/11/30 03:00:19;;;;;;;38.83;21.48;;;5.90;99.90;;;;;;5098637;27;20085;-82
2022/11/30 03:02:44;;;;;;;37.97;21.02;;;5.90;99.90;;;;;;5114170;27;20488;-83
2022/11/30 03:05:10;;;;;;;36.38;19.90;;;5.90;99.90;;;;;;5109691;27;20095;-82
2022/11/30 03:07:36;;;;;;;39.40;22.08;;;5.90;99.90;;;;;;5105226;27;20697;-82
2022/11/30 03:10:02;;;;;;;36.28;20.63;;;5.90;99.90;;;;;;5105105;27;20092;-82
2022/11/30 03:12:28;;;;;;;36.47;21.48;;;5.90;99.90;;;;;;5097177;27;20031;-83
2022/11/30 03:14:54;;;;;;;36.38;21.45;;;5.90;99.90;;;;;;5101172;27;20039;-83
2022/11/30 03:17:19;;;;;;;37.03;20.45;;;5.90;99.90;;;;;;5105132;27;20097;-82
2022/11/30 03:19:45;;;;;;;39.63;21.40;;;5.90;99.90;;;;;;5108177;27;20032;-81
2022/11/30 03:22:10;;;;;;;34.75;20.45;;;6.00;99.90;;;;;;5109679;27;20032;-82
2022/11/30 03:24:36;;;;;;;38.92;21.27;;;5.90;99.90;;;;;;5112780;27;20433;-82
2022/11/30 03:27:02;;;;;;;37.80;21.73;;;6.00;99.90;;;;;;5105585;28;20382;-81
2022/11/30 03:29:27;;;;;;;38.10;22.42;;;6.00;99.90;;;;;;5101096;27;20396;-82
2022/11/30 03:31:53;;;;;;;37.53;21.23;;;5.90;99.90;;;;;;5100355;28;20054;-81
2022/11/30 03:34:18;;;;;;;38.75;21.83;;;5.90;99.90;;;;;;5124734;27;20121;-82
2022/11/30 03:36:44;;;;;;;39.25;21.02;;;5.90;99.90;;;;;;5109508;27;20065;-82
2022/11/30 03:39:09;;;;;;;35.08;21.15;;;5.90;99.90;;;;;;5111389;27;20064;-82
2022/11/30 03:41:35;;;;;;;38.08;21.45;;;5.90;99.90;;;;;;5111093;28;20027;-82
2022/11/30 03:44:01;;;;;;;35.55;21.27;;;5.90;99.90;;;;;;5109341;27;20443;-82
2022/11/30 03:46:26;;;;;;;38.60;21.65;;;5.80;99.90;;;;;;5109077;28;20510;-82
2022/11/30 03:48:53;;;;;;;40.70;21.45;;;5.90;99.90;;;;;;5105051;27;20046;-82
2022/11/30 03:51:19;;;;;;;38.72;21.70;;;5.90;99.90;;;;;;5091248;27;20035;-82
2022/11/30 03:53:44;;;;;;;36.90;22.33;;;5.90;99.90;;;;;;5094711;28;20144;-82
2022/11/30 03:56:11;;;;;;;43.35;22.38;;;5.90;99.90;;;;;;5109532;28;20035;-82
2022/11/30 03:58:37;;;;;;;39.60;23.35;;;5.80;99.90;;;;;;5092660;28;20438;-82
2022/11/30 04:01:12;;;;;;;41.85;22.58;;;5.90;99.90;;;;;;5091318;28;20039;-82
2022/11/30 04:03:38;;;;;;;37.35;21.60;;;5.90;99.90;;;;;;5107154;28;20430;-82
2022/11/30 04:06:06;;;;;;;41.22;22.77;;;5.90;99.90;;;;;;5093629;28;20092;-81
2022/11/30 04:08:32;;;;;;;36.47;22.02;;;5.90;99.90;;;;;;5117280;28;20039;-82
2022/11/30 04:10:58;;;;;;;40.00;23.42;;;5.90;99.90;;;;;;5101723;28;20045;-82
2022/11/30 04:13:24;;;;;;;40.63;23.27;;;5.90;99.90;;;;;;5105157;28;20046;-82
2022/11/30 04:15:51;;;;;;;39.05;23.38;;;5.90;99.90;;;;;;5107797;28;20035;-82
2022/11/30 04:18:18;;;;;;;40.53;22.65;;;6.00;99.90;;;;;;5100553;28;20415;-82
2022/11/30 04:20:44;;;;;;;38.20;21.25;;;5.90;99.90;;;;;;5108325;28;20046;-82
2022/11/30 04:23:10;;;;;;;41.35;22.58;;;6.00;99.90;;;;;;5106453;28;20040;-82
2022/11/30 04:25:38;;;;;;;39.50;22.00;;;5.90;99.90;;;;;;5090192;28;20032;-82
2022/11/30 04:28:03;;;;;;;42.55;23.60;;;6.00;99.90;;;;;;5106090;28;20551;-82
2022/11/30 04:30:29;;;;;;;43.40;23.65;;;6.00;99.90;;;;;;5108752;28;20039;-82
2022/11/30 04:32:54;;;;;;;38.83;22.73;;;6.00;99.90;;;;;;5111801;28;20046;-82
2022/11/30 04:35:20;;;;;;;39.53;21.60;;;6.00;99.90;;;;;;5111660;28;20046;-82
2022/11/30 04:37:46;;;;;;;40.22;22.45;;;6.00;99.90;;;;;;5107371;28;20043;-82
2022/11/30 04:40:12;;;;;;;40.25;22.17;;;6.00;99.90;;;;;;5110086;27;20043;-82
2022/11/30 04:42:37;;;;;;;37.63;21.35;;;6.00;99.90;;;;;;5095885;27;20070;-82
2022/11/30 04:45:03;;;;;;;40.90;23.00;;;6.00;99.90;;;;;;5111575;27;20035;-82
2022/11/30 04:47:28;;;;;;;38.67;22.15;;;6.00;99.90;;;;;;5109371;27;20035;-82
2022/11/30 04:49:54;;;;;;;38.22;21.70;;;6.00;99.90;;;;;;5118629;27;20723;-82
2022/11/30 04:52:20;;;;;;;39.03;22.10;;;6.00;99.90;;;;;;5115653;27;20488;-83
2022/11/30 04:54:45;;;;;;;38.20;21.67;;;6.10;99.90;;;;;;5104281;27;20035;-81
2022/11/30 04:57:11;;;;;;;39.53;21.85;;;6.00;99.90;;;;;;5100907;27;20074;-82
2022/11/30 04:59:36;;;;;;;43.55;23.58;;;6.10;99.90;;;;;;5111791;27;20035;-83
2022/11/30 05:02:02;;;;;;;41.85;23.35;;;6.10;99.90;;;;;;5108470;27;20114;-82
2022/11/30 05:04:28;;;;;;;38.70;22.55;;;6.10;99.90;;;;;;5116984;27;20090;-81
2022/11/30 05:06:53;;;;;;;38.00;22.00;;;6.10;99.90;;;;;;5116212;27;20448;-82
2022/11/30 05:09:19;;;;;;;38.22;21.10;;;6.10;99.90;;;;;;5118378;27;20141;-81
2022/11/30 05:11:45;;;;;;;40.50;21.92;;;6.10;99.90;;;;;;5112595;27;20092;-80
2022/11/30 05:14:11;;;;;;;49.47;24.70;;;6.10;99.90;;;;;;5092714;27;20050;-82
2022/11/30 05:16:36;;;;;;;46.30;22.95;;;6.10;99.90;;;;;;5107311;28;20044;-81
2022/11/30 05:19:02;;;;;;;48.25;23.52;;;6.10;99.90;;;;;;5109703;28;20136;-81
2022/11/30 05:21:28;;;;;;;51.15;24.30;;;6.20;99.90;;;;;;5109471;27;21748;-83
2022/11/30 05:23:53;;;;;;;49.55;25.25;;;6.10;99.90;;;;;;5110218;28;20032;-83
2022/11/30 05:26:19;;;;;;;47.88;24.25;;;6.20;99.90;;;;;;5110597;27;20036;-81
2022/11/30 05:28:44;;;;;;;52.85;23.98;;;6.20;99.90;;;;;;5117623;27;20035;-82
2022/11/30 05:31:10;;;;;;;57.05;25.30;;;6.20;99.90;;;;;;5111666;27;20039;-82
2022/11/30 05:33:35;;;;;;;58.20;23.88;;;6.10;99.90;;;;;;5093029;27;20503;-82
2022/11/30 05:36:01;;;;;;;55.72;23.98;;;6.20;99.90;;;;;;5087590;27;20108;-82
2022/11/30 05:38:27;;;;;;;53.70;22.45;;;6.20;99.90;;;;;;5088370;27;20184;-82
2022/11/30 05:40:59;;;;;;;50.95;22.00;;;6.10;99.90;;;;;;5095156;27;20115;-83
2022/11/30 05:43:24;;;;;;;47.80;21.52;;;6.10;99.90;;;;;;5105310;27;20084;-81
2022/11/30 05:45:50;;;;;;;47.50;21.35;;;6.10;99.90;;;;;;5112598;27;20545;-81
2022/11/30 05:48:15;;;;;;;50.03;22.50;;;6.10;99.90;;;;;;5097048;27;20420;-81
2022/11/30 05:50:41;;;;;;;47.50;22.33;;;6.10;99.90;;;;;;5113533;27;20080;-82
2022/11/30 05:53:06;;;;;;;50.35;22.88;;;6.10;99.90;;;;;;5115288;27;20043;-81
2022/11/30 05:55:32;;;;;;;48.35;21.17;;;6.10;99.90;;;;;;5109176;27;20122;-82
2022/11/30 05:57:58;;;;;;;49.67;21.55;;;6.10;99.90;;;;;;5091781;27;20077;-81
2022/11/30 06:00:23;;;;;;;49.00;22.60;;;6.10;99.90;;;;;;5111278;27;20192;-82
2022/11/30 06:02:55;;;;;;;54.15;23.40;;;6.10;99.90;;;;;;5114840;27;20035;-83
2022/11/30 06:05:20;;;;;;;53.75;23.13;;;6.10;99.90;;;;;;5109219;27;20031;-82
2022/11/30 06:07:46;;;;;;;49.38;22.77;;;6.10;99.90;;;;;;5112093;27;20099;-83
2022/11/30 06:10:12;;;;;;;51.28;23.20;;;6.10;99.90;;;;;;5106379;27;20034;-82
2022/11/30 06:12:37;;;;;;;52.47;22.42;;;6.00;99.90;;;;;;5110608;27;20145;-82
2022/11/30 06:15:03;;;;;;;52.63;22.42;;;6.10;99.90;;;;;;5113733;28;20510;-82
2022/11/30 06:17:29;;;;;;;50.38;22.33;;;6.10;99.90;;;;;;5092822;27;20043;-82
2022/11/30 06:19:54;;;;;;;50.30;21.52;;;6.10;99.90;;;;;;5112627;27;20042;-81
2022/11/30 06:22:20;;;;;;;47.13;22.00;;;6.00;99.90;;;;;;5108654;27;20114;-82
2022/11/30 06:24:45;;;;;;;48.08;21.67;;;6.10;99.90;;;;;;5101668;28;20396;-83
2022/11/30 06:27:11;;;;;;;49.72;21.88;;;6.00;99.90;;;;;;5110810;27;20045;-82
2022/11/30 06:29:36;;;;;;;48.15;21.55;;;6.10;99.90;;;;;;5106916;28;20040;-83
2022/11/30 06:32:02;;;;;;;45.83;20.38;;;6.00;99.90;;;;;;5083248;28;20138;-83
2022/11/30 06:34:30;;;;;;;49.50;22.45;;;6.00;99.90;;;;;;5102994;27;20063;-82
2022/11/30 06:36:56;;;;;;;45.42;20.55;;;6.00;99.90;;;;;;5091232;27;20042;-82
2022/11/30 06:39:22;;;;;;;53.40;21.90;;;6.10;99.90;;;;;;5095957;27;20035;-82
2022/11/30 06:41:47;;;;;;;48.92;21.38;;;6.00;99.90;;;;;;5111152;27;20031;-82
2022/11/30 06:44:13;;;;;;;43.72;20.45;;;6.00;99.90;;;;;;5110613;27;20102;-82
2022/11/30 06:46:38;;;;;;;41.25;19.38;;;6.00;99.90;;;;;;5114827;28;20035;-82
2022/11/30 06:49:05;;;;;;;44.55;19.92;;;6.00;99.90;;;;;;5098036;28;20035;-82
2022/11/30 06:51:30;;;;;;;40.70;19.38;;;6.00;99.90;;;;;;5106594;27;20038;-82
2022/11/30 06:53:56;;;;;;;40.58;20.25;;;6.00;99.90;;;;;;5093738;27;20050;-81
2022/11/30 06:56:21;;;;;;;45.13;19.58;;;6.00;99.90;;;;;;5124314;27;20031;-82
2022/11/30 06:58:47;;;;;;;37.72;18.20;;;6.00;99.90;;;;;;5121095;27;20037;-81
2022/11/30 07:01:13;;;;;;;39.83;19.52;;;6.00;99.90;;;;;;5113559;27;20046;-81
2022/11/30 07:03:40;;;;;;;35.60;19.20;;;5.90;99.90;;;;;;5114610;27;20039;-82
2022/11/30 07:06:11;;;;;;;36.97;19.15;;;6.00;99.90;;;;;;5119205;27;20115;-82
2022/11/30 07:08:38;;;;;;;33.38;18.17;;;6.00;99.90;;;;;;5116374;27;20039;-82
2022/11/30 07:11:05;;;;;;;33.33;18.30;;;5.90;99.90;;;;;;5118181;27;20046;-83
2022/11/30 07:13:30;;;;;;;33.83;18.02;;;5.90;99.90;;;;;;5101683;28;20122;-82
2022/11/30 07:15:56;;;;;;;32.00;17.67;;;5.90;99.90;;;;;;5111567;28;20079;-80
2022/11/30 07:18:22;;;;;;;36.45;18.00;;;5.90;99.90;;;;;;5107772;27;20518;-81
2022/11/30 07:20:48;;;;;;;36.92;18.63;;;5.90;99.90;;;;;;5115746;27;20038;-82
2022/11/30 07:26:06;;;;;;;33.03;17.55;;;5.90;99.90;;;;;;5098870;28;20048;-82
2022/11/30 07:28:33;;;;;;;34.97;18.17;;;5.90;99.90;;;;;;5099001;28;20135;-82
2022/11/30 07:30:58;;;;;;;34.58;18.17;;;5.90;99.90;;;;;;5096481;28;20061;-82
2022/11/30 07:33:24;;;;;;;34.75;17.45;;;5.90;99.90;;;;;;5096609;28;20047;-81
2022/11/30 07:35:52;;;;;;;37.63;18.33;;;5.90;99.90;;;;;;5096692;28;20097;-81
2022/11/30 07:38:18;;;;;;;34.63;18.58;;;5.90;99.90;;;;;;5097721;28;20058;-82
2022/11/30 07:40:43;;;;;;;35.65;18.75;;;6.00;99.90;;;;;;5097586;28;20035;-81
2022/11/30 07:43:09;;;;;;;35.13;17.88;;;6.00;99.90;;;;;;5099598;27;20450;-81
2022/11/30 07:45:34;;;;;;;32.70;17.30;;;6.00;99.90;;;;;;5118712;27;20059;-82
2022/11/30 07:48:00;;;;;;;38.22;18.70;;;5.90;99.90;;;;;;5106987;28;20067;-82
2022/11/30 07:50:25;;;;;;;37.45;17.50;;;5.90;99.90;;;;;;5089482;28;20404;-82
2022/11/30 07:52:51;;;;;;;30.85;17.08;;;6.00;99.90;;;;;;5115959;27;20039;-82
2022/11/30 07:55:18;;;;;;;35.10;18.17;;;5.90;99.90;;;;;;5099355;27;20035;-82
2022/11/30 07:57:44;;;;;;;31.77;17.40;;;5.90;99.90;;;;;;5117220;28;20047;-81
2022/11/30 08:00:10;;;;;;;34.22;17.67;;;5.90;99.90;;;;;;5106037;28;20138;-80
2022/11/30 08:02:35;;;;;;;33.10;17.23;;;5.90;99.90;;;;;;5099718;28;20493;-80
2022/11/30 08:05:01;;;;;;;33.70;17.35;;;5.90;99.90;;;;;;5097770;28;20031;-82
2022/11/30 08:07:26;;;;;;;33.65;17.63;;;5.90;99.90;;;;;;5097258;28;20043;-82
2022/11/30 08:09:52;;;;;;;32.20;16.65;;;5.90;99.90;;;;;;5095891;28;20123;-83
2022/11/30 08:12:18;;;;;;;34.60;17.52;;;5.90;99.90;;;;;;5098017;28;20082;-83
2022/11/30 08:14:43;;;;;;;32.22;17.45;;;5.90;99.90;;;;;;5099409;27;20086;-81
2022/11/30 08:17:09;;;;;;;32.88;18.40;;;5.90;99.90;;;;;;5116415;27;20054;-83
2022/11/30 08:19:34;;;;;;;29.98;18.08;;;5.90;99.90;;;;;;5101633;27;20031;-82
2022/11/30 08:21:59;;;;;;;32.15;18.00;;;5.90;99.90;;;;;;5102738;28;20035;-82
2022/11/30 08:24:25;;;;;;;31.67;17.50;;;5.90;99.90;;;;;;5101601;28;20485;-83
2022/11/30 08:26:53;;;;;;;29.80;17.55;;;5.90;99.90;;;;;;5083851;28;20044;-83
2022/11/30 08:29:19;;;;;;;29.60;16.58;;;5.90;99.90;;;;;;5082971;28;20070;-83
2022/11/30 08:31:44;;;;;;;28.48;16.95;;;5.90;99.90;;;;;;5108530;27;20042;-82
2022/11/30 08:34:12;;;;;;;29.77;16.90;;;5.90;99.90;;;;;;5119770;27;20119;-81
2022/11/30 08:36:39;;;;;;;28.27;17.00;;;5.90;99.90;;;;;;5114134;27;20043;-82
2022/11/30 08:39:06;;;;;;;30.80;17.08;;;5.80;99.90;;;;;;5117780;27;20032;-81
2022/11/30 08:41:33;;;;;;;27.70;17.25;;;5.90;99.90;;;;;;5103786;28;20088;-82
2022/11/30 08:44:00;;;;;;;25.58;16.30;;;5.90;99.90;;;;;;5082691;28;20063;-81
2022/11/30 08:46:26;;;;;;;29.33;16.83;;;5.90;99.90;;;;;;5083510;28;20049;-82
2022/11/30 08:48:51;;;;;;;27.95;16.80;;;5.90;99.90;;;;;;5100606;28;20481;-82
2022/11/30 08:51:18;;;;;;;28.65;17.45;;;5.90;99.90;;;;;;5101054;28;20031;-82
2022/11/30 08:53:45;;;;;;;27.40;16.50;;;6.00;99.90;;;;;;5100556;28;20401;-82
2022/11/30 08:56:14;;;;;;;27.33;16.50;;;6.00;99.90;;;;;;5100229;28;20035;-83
2022/11/30 08:58:40;;;;;;;27.85;17.15;;;6.00;99.90;;;;;;5099154;28;20040;-83
2022/11/30 09:01:15;;;;;;;30.17;18.20;;;6.00;99.90;;;;;;5098528;28;20058;-82
2022/11/30 09:03:41;;;;;;;31.13;17.77;;;6.00;99.90;;;;;;5118478;27;20086;-82
2022/11/30 09:06:11;;;;;;;30.77;18.17;;;6.00;99.90;;;;;;5100650;28;20040;-82
2022/11/30 09:08:37;;;;;;;31.83;18.48;;;6.10;99.90;;;;;;5099829;28;20122;-81
2022/11/30 09:11:13;;;;;;;34.42;18.88;;;6.10;99.90;;;;;;5100013;28;20123;-82
2022/11/30 09:13:39;;;;;;;36.10;18.95;;;6.10;99.90;;;;;;5083397;28;20078;-82
2022/11/30 09:16:05;;;;;;;36.55;19.73;;;6.10;99.90;;;;;;5083156;28;20081;-81
2022/11/30 09:18:31;;;;;;;35.72;18.92;;;6.20;99.90;;;;;;5099844;28;20040;-81
2022/11/30 09:21:02;;;;;;;35.22;18.90;;;6.20;99.90;;;;;;5113623;27;20532;-81
2022/11/30 09:23:28;;;;;;;38.65;20.02;;;6.20;99.90;;;;;;5118372;27;20031;-81
2022/11/30 09:25:59;;;;;;;37.20;19.67;;;6.30;99.90;;;;;;5102644;28;20036;-82
2022/11/30 09:28:25;;;;;;;35.88;19.13;;;6.30;99.90;;;;;;5098994;28;20039;-81
2022/11/30 09:30:51;;;;;;;37.58;20.17;;;6.30;99.90;;;;;;5099334;28;20405;-82
2022/11/30 09:33:17;;;;;;;36.88;19.55;;;6.40;99.90;;;;;;5101804;28;20110;-82
2022/11/30 09:35:43;;;;;;;40.38;20.48;;;6.40;99.90;;;;;;5099054;28;20431;-82
2022/11/30 09:38:08;;;;;;;38.75;20.67;;;6.50;99.90;;;;;;5098525;28;20093;-81
2022/11/30 09:40:37;;;;;;;39.97;20.42;;;6.50;99.90;;;;;;5099418;28;20032;-82
2022/11/30 09:43:24;;;;;;;39.53;20.08;;;6.50;99.90;;;;;;5101841;28;20587;-82
2022/11/30 09:45:55;;;;;;;40.97;21.40;;;6.50;99.90;;;;;;5099027;28;20501;-82
2022/11/30 09:48:28;;;;;;;41.28;20.85;;;6.50;99.90;;;;;;5081210;28;20138;-83
2022/11/30 09:50:55;;;;;;;46.55;21.60;;;6.50;99.90;;;;;;5098831;28;20071;-82
2022/11/30 09:53:31;;;;;;;42.92;21.77;;;6.40;99.90;;;;;;5098596;28;20039;-82
2022/11/30 09:55:58;;;;;;;40.55;20.48;;;6.50;99.90;;;;;;5098666;28;20046;-81
2022/11/30 09:58:34;;;;;;;41.60;20.95;;;6.50;99.90;;;;;;5097359;28;20043;-82
2022/11/30 10:01:01;;;;;;;47.10;22.17;;;6.60;99.90;;;;;;5097701;28;20042;-82
2022/11/30 10:03:26;;;;;;;42.00;20.95;;;6.60;99.90;;;;;;5098267;28;20088;-81
2022/11/30 10:06:08;;;;;;;39.22;21.00;;;6.60;99.90;;;;;;5098605;28;20123;-82
2022/11/30 10:08:45;;;;;;;37.55;20.60;;;6.60;99.90;;;;;;5097342;28;20496;-81
2022/11/30 10:11:38;;;;;;;36.38;19.80;;;6.60;99.90;;;;;;5115688;27;20039;-82
2022/11/30 10:14:14;;;;;;;34.83;19.50;;;6.60;99.90;;;;;;5118193;27;20050;-82
2022/11/30 10:17:09;;;;;;;35.70;20.27;;;6.60;99.90;;;;;;5117925;27;20039;-80
2022/11/30 10:19:37;;;;;;;36.60;20.17;;;6.60;99.90;;;;;;5110220;27;20043;-82
2022/11/30 10:22:12;;;;;;;35.90;20.00;;;6.60;99.90;;;;;;5117338;27;20043;-82
2022/11/30 10:25:06;;;;;;;34.72;20.30;;;6.70;99.90;;;;;;5121161;27;20500;-82
2022/11/30 10:27:45;;;;;;;35.92;19.48;;;6.70;99.90;;;;;;5119399;27;20039;-82
2022/11/30 10:30:23;;;;;;;33.03;20.65;;;6.70;99.90;;;;;;5117230;27;20050;-82
2022/11/30 10:32:54;;;;;;;39.30;20.48;;;6.80;99.90;;;;;;5117703;27;20043;-81
2022/11/30 10:35:43;;;;;;;34.72;20.27;;;6.80;99.90;;;;;;5114182;28;20062;-82
2022/11/30 10:38:15;;;;;;;36.97;20.35;;;6.80;99.90;;;;;;5080436;28;20497;-82
2022/11/30 10:40:52;;;;;;;40.92;21.60;;;6.90;99.90;;;;;;5097392;28;20027;-81
2022/11/30 10:43:29;;;;;;;35.22;20.27;;;6.80;99.90;;;;;;5098629;28;20032;-82
2022/11/30 10:45:54;;;;;;;38.80;22.33;;;6.80;99.90;;;;;;5099397;28;20044;-82
2022/11/30 10:48:50;;;;;;;35.67;20.13;;;6.90;99.90;;;;;;5098197;28;20046;-82
2022/11/30 10:51:16;;;;;;;34.67;20.27;;;6.90;99.90;;;;;;5080925;28;20032;-82
2022/11/30 10:53:41;;;;;;;36.63;20.80;;;6.90;99.90;;;;;;5097358;28;20113;-82
2022/11/30 10:56:09;;;;;;;35.45;20.60;;;6.90;99.90;;;;;;5097248;28;20396;-83
2022/11/30 10:58:37;;;;;;;34.05;20.33;;;6.80;99.90;;;;;;5089796;27;20037;-82
2022/11/30 11:01:09;;;;;;;36.80;21.15;;;6.90;99.90;;;;;;5102586;28;20522;-81
2022/11/30 11:03:36;;;;;;;34.50;20.10;;;6.90;99.90;;;;;;5103040;27;20032;-81
2022/11/30 11:06:09;;;;;;;34.35;20.15;;;6.90;99.90;;;;;;5112288;27;20031;-81
2022/11/30 11:08:35;;;;;;;34.65;20.33;;;6.90;99.90;;;;;;5113182;27;20056;-81
2022/11/30 11:11:01;;;;;;;33.13;20.48;;;6.90;99.90;;;;;;5110498;27;20039;-81
2022/11/30 11:13:42;;;;;;;35.00;20.35;;;7.00;99.90;;;;;;5112634;27;20035;-82
2022/11/30 11:16:10;;;;;;;35.25;20.13;;;7.00;99.90;;;;;;5100556;27;20099;-81
2022/11/30 11:18:54;;;;;;;34.47;20.48;;;7.00;99.90;;;;;;5107896;27;20042;-82
2022/11/30 11:21:21;;;;;;;35.28;20.50;;;7.00;99.90;;;;;;5093566;27;20110;-82
2022/11/30 11:23:50;;;;;;;32.08;19.58;;;7.00;99.90;;;;;;5096038;27;20473;-82
2022/11/30 11:26:22;;;;;;;32.50;19.40;;;7.00;99.90;;;;;;5113666;27;20076;-82
2022/11/30 11:28:50;;;;;;;32.22;18.88;;;7.00;99.90;;;;;;5113267;27;20095;-82
2022/11/30 11:31:34;;;;;;;28.70;18.60;;;7.00;99.90;;;;;;5110029;27;20047;-81
2022/11/30 11:34:00;;;;;;;28.40;17.85;;;7.00;99.90;;;;;;5089924;27;20112;-83
2022/11/30 11:36:28;;;;;;;30.92;19.17;;;7.00;99.90;;;;;;5109213;28;20071;-82
2022/11/30 11:38:54;;;;;;;33.30;19.85;;;7.00;99.90;;;;;;5097147;28;20573;-82
2022/11/30 11:41:33;;;;;;;33.83;20.20;;;7.00;99.90;;;;;;5097853;28;20085;-82
2022/11/30 11:44:08;;;;;;;31.70;19.50;;;6.90;99.90;;;;;;5101385;27;20050;-82
2022/11/30 11:46:55;;;;;;;32.13;19.75;;;7.00;99.90;;;;;;5116354;27;20035;-82
2022/11/30 11:49:35;;;;;;;33.05;19.85;;;7.00;99.90;;;;;;5096553;28;20410;-82
2022/11/30 11:52:16;;;;;;;34.00;21.38;;;7.00;99.90;;;;;;5109176;27;20031;-81
2022/11/30 11:54:57;;;;;;;33.35;20.20;;;7.00;99.90;;;;;;5098274;27;20031;-81
2022/11/30 11:57:34;;;;;;;38.42;21.85;;;7.00;99.90;;;;;;5110946;27;20689;-81
2022/11/30 12:00:30;;;;;;;34.20;20.98;;;7.00;99.90;;;;;;5106351;28;20047;-81
2022/11/30 12:03:16;;;;;;;35.35;21.35;;;7.00;99.90;;;;;;5097256;28;20449;-82
2022/11/30 12:05:50;;;;;;;35.55;21.13;;;7.00;99.90;;;;;;5097394;28;20500;-82
2022/11/30 12:08:16;;;;;;;;;;;7.00;99.90;;;;;;5082406;27;20119;-83
2022/11/30 12:10:59;;;;;;;32.47;20.65;;;7.00;99.90;;;;;;5108828;28;19954;-80
2022/11/30 12:13:33;;;;;;;33.42;20.77;;;7.00;99.90;;;;;;5116326;28;20082;-81
2022/11/30 12:16:07;;;;;;;;;;;7.00;99.90;;;;;;5116116;28;20471;-82
2022/11/30 12:18:41;;;;;;;33.03;20.30;;;7.00;99.90;;;;;;5104475;28;19923;-83
2022/11/30 12:21:11;;;;;;;33.85;20.17;;;7.00;99.90;;;;;;5098627;27;20063;-83
2022/11/30 12:24:03;;;;;;;32.20;20.42;;;7.00;99.90;;;;;;5111563;27;20044;-83
2022/11/30 12:26:39;;;;;;;34.33;20.17;;;7.10;99.90;;;;;;5098043;28;20045;-81
2022/11/30 12:29:33;;;;;;;36.20;21.67;;;7.10;99.90;;;;;;5122020;28;20036;-81
2022/11/30 12:32:09;;;;;;;39.65;20.27;;;7.10;99.90;;;;;;5106169;28;20035;-82
2022/11/30 12:35:01;;;;;;;34.42;21.20;;;7.10;99.90;;;;;;5097685;28;20027;-82
2022/11/30 12:37:46;;;;;;;35.10;20.80;;;7.00;99.90;;;;;;5091066;28;20400;-82
2022/11/30 12:40:22;;;;;;;34.20;20.73;;;7.00;99.90;;;;;;5110202;28;20564;-81
2022/11/30 12:43:02;;;;;;;36.58;21.15;;;7.00;99.90;;;;;;5112402;27;20507;-82
2022/11/30 12:45:44;;;;;;;35.35;21.35;;;7.00;99.90;;;;;;5095136;28;20035;-83
2022/11/30 12:48:51;;;;;;;34.30;20.58;;;6.90;99.90;;;;;;5106174;27;20095;-83
2022/11/30 12:51:28;;;;;;;34.22;20.35;;;6.90;99.90;;;;;;5110032;28;20069;-82